Time;durP1;ratioP1;P1;durP2;ratioP2;P2;SDS_P1;SDS_P2;PMS_P1;PMS_P2;Temp;Humidity;BMP_temperature;BMP_pressure;BME280_temperature;BME280_humidity;BME280_pressure;Samples;Min_cycle;Max_cycle;Signal;HPM_P1;HPM_P2
2022/04/25 00:01:57;;;;;;;;;;;15.00;82.10;;;;;;4332299;33;43211;-81
2022/04/25 00:04:25;;;;;;;;;;;15.00;81.90;;;;;;4332615;33;42727;-81
2022/04/25 00:06:52;;;;;;;;;;;14.90;81.70;;;;;;4345465;33;43272;-81
2022/04/25 00:09:19;;;;;;;;;;;14.90;81.90;;;;;;4345984;33;44028;-81
2022/04/25 00:11:46;;;;;;;;;;;14.90;82.00;;;;;;4345606;33;43794;-81
2022/04/25 00:14:14;;;;;;;;;;;14.90;81.70;;;;;;4345240;33;43753;-81
2022/04/25 00:16:41;;;;;;;;;;;14.80;81.50;;;;;;4345726;33;44104;-81
2022/04/25 00:19:09;;;;;;;;;;;14.80;82.00;;;;;;4332415;33;46183;-82
2022/04/25 00:21:36;;;;;;;;;;;14.80;82.30;;;;;;4345685;33;42593;-85
2022/04/25 00:24:03;;;;;;;;;;;14.80;84.30;;;;;;4345864;33;43883;-86
2022/04/25 00:26:30;;;;;;;;;;;14.80;83.80;;;;;;4332335;33;45087;-85
2022/04/25 00:28:57;;;;;;;;;;;14.80;86.60;;;;;;4332467;33;43651;-84
2022/04/25 00:31:24;;;;;;;;;;;14.80;87.40;;;;;;4332027;33;44196;-84
2022/04/25 00:33:51;;;;;;;;;;;14.80;87.80;;;;;;4345008;33;42927;-83
2022/04/25 00:36:18;;;;;;;;;;;14.80;88.20;;;;;;4331801;33;44220;-84
2022/04/25 00:38:45;;;;;;;;;;;14.80;88.90;;;;;;4332139;33;43206;-83
2022/04/25 00:41:12;;;;;;;;;;;14.80;89.80;;;;;;4331791;33;43234;-83
2022/04/25 00:43:39;;;;;;;;;;;14.80;89.90;;;;;;4332237;33;44260;-83
2022/04/25 00:46:06;;;;;;;;;;;14.80;90.20;;;;;;4345421;33;43195;-84
2022/04/25 00:48:33;;;;;;;;;;;14.80;90.00;;;;;;4345501;33;42256;-83
2022/04/25 00:51:00;;;;;;;;;;;14.80;90.40;;;;;;4344832;33;44674;-83
2022/04/25 00:53:28;;;;;;;;;;;14.80;90.30;;;;;;4344974;33;43296;-82
2022/04/25 00:55:55;;;;;;;;;;;14.80;90.40;;;;;;4332208;33;44137;-82
2022/04/25 00:58:22;;;;;;;;;;;14.80;90.30;;;;;;4345539;33;42878;-82
2022/04/25 01:00:49;;;;;;;;;;;14.80;90.40;;;;;;4344944;33;44220;-81
2022/04/25 01:03:17;;;;;;;;;;;14.80;90.80;;;;;;4332053;33;44196;-82
2022/04/25 01:05:44;;;;;;;;;;;14.70;90.80;;;;;;4331607;33;44071;-82
2022/04/25 01:08:11;;;;;;;;;;;14.80;90.70;;;;;;4332017;33;44369;-82
2022/04/25 01:10:38;;;;;;;;;;;14.80;90.70;;;;;;4331585;33;43502;-83
2022/04/25 01:13:05;;;;;;;;;;;14.70;90.80;;;;;;4344776;33;43818;-82
2022/04/25 01:15:34;;;;;;;;;;;14.70;90.80;;;;;;4344761;33;42294;-82
2022/04/25 01:18:02;;;;;;;;;;;14.70;90.90;;;;;;4331384;33;43474;-82
2022/04/25 01:20:29;;;;;;;;;;;14.70;91.10;;;;;;4331365;33;43766;-82
2022/04/25 01:22:56;;;;;;;;;;;14.60;91.00;;;;;;4332087;33;44020;-81
2022/04/25 01:28:10;;;;;;;;;;;14.60;90.90;;;;;;4321730;33;43285;-82
2022/04/25 01:30:37;;;;;;;;;;;14.60;91.00;;;;;;4331252;33;45770;-82
2022/04/25 01:33:04;;;;;;;;;;;14.60;91.30;;;;;;4331474;33;42899;-82
2022/04/25 01:35:31;;;;;;;;;;;14.60;91.00;;;;;;4344865;33;42959;-81
2022/04/25 01:37:58;;;;;;;;;;;14.60;90.90;;;;;;4332257;33;20414;-82
2022/04/25 01:40:25;;;;;;;;;;;14.50;91.10;;;;;;4344943;33;43508;-81
2022/04/25 01:42:52;;;;;;;;;;;14.50;91.30;;;;;;4344961;33;43226;-82
2022/04/25 01:45:20;;;;;;;;;;;14.50;91.00;;;;;;4347231;33;43870;-82
2022/04/25 01:47:47;;;;;;;;;;;14.50;91.00;;;;;;4334749;33;43315;-82
2022/04/25 01:50:14;;;;;;;;;;;14.50;91.00;;;;;;4348086;33;43364;-82
2022/04/25 01:52:41;;;;;;;;;;;14.50;91.00;;;;;;4334608;33;44204;-82
2022/04/25 01:55:08;;;;;;;;;;;14.40;90.90;;;;;;4334680;33;43604;-82
2022/04/25 01:57:35;;;;;;;;;;;14.40;91.10;;;;;;4334174;33;44199;-82
2022/04/25 02:00:03;;;;;;;;;;;14.40;91.10;;;;;;4333959;33;43313;-82
2022/04/25 02:02:30;;;;;;;;;;;14.40;91.10;;;;;;4333959;33;44953;-81
2022/04/25 02:04:57;;;;;;;;;;;14.30;91.00;;;;;;4347220;33;43230;-82
2022/04/25 02:07:24;;;;;;;;;;;14.30;90.90;;;;;;4347728;33;43496;-82
2022/04/25 02:09:51;;;;;;;;;;;14.30;90.90;;;;;;4347111;33;43454;-81
2022/04/25 02:12:20;;;;;;;;;;;14.30;90.90;;;;;;4347171;33;43218;-82
2022/04/25 02:14:47;;;;;;;;;;;14.30;90.90;;;;;;4347511;33;44038;-82
2022/04/25 02:17:14;;;;;;;;;;;14.30;90.90;;;;;;4334056;33;43277;-82
2022/04/25 02:19:44;;;;;;;;;;;14.20;90.90;;;;;;4334225;33;43518;-83
2022/04/25 02:22:11;;;;;;;;;;;14.20;90.80;;;;;;4347358;33;42503;-82
2022/04/25 02:24:39;;;;;;;;;;;14.20;90.80;;;;;;4346916;33;44107;-82
2022/04/25 02:27:06;;;;;;;;;;;14.20;90.90;;;;;;4333531;33;43304;-82
2022/04/25 02:29:35;;;;;;;;;;;14.20;90.80;;;;;;4333766;33;43931;-82
2022/04/25 02:32:02;;;;;;;;;;;14.20;90.90;;;;;;4347074;33;43589;-82
2022/04/25 02:34:31;;;;;;;;;;;14.10;90.80;;;;;;4347189;33;43622;-82
2022/04/25 02:36:59;;;;;;;;;;;14.10;90.80;;;;;;4333701;33;43049;-82
2022/04/25 02:39:26;;;;;;;;;;;14.10;90.80;;;;;;4333849;33;44754;-82
2022/04/25 02:41:53;;;;;;;;;;;14.10;90.80;;;;;;4346732;33;43837;-82
2022/04/25 02:44:20;;;;;;;;;;;14.10;90.80;;;;;;4346973;33;43235;-83
2022/04/25 02:46:47;;;;;;;;;;;14.00;90.70;;;;;;4333657;33;42693;-81
2022/04/25 02:49:14;;;;;;;;;;;14.00;90.80;;;;;;4333319;33;42738;-82
2022/04/25 02:51:43;;;;;;;;;;;14.00;90.70;;;;;;4333156;33;46010;-82
2022/04/25 02:54:10;;;;;;;;;;;14.00;90.70;;;;;;4346943;33;43023;-82
2022/04/25 02:56:37;;;;;;;;;;;13.90;90.60;;;;;;4332478;33;44653;-82
2022/04/25 02:59:04;;;;;;;;;;;13.90;90.80;;;;;;4333183;33;42625;-81
2022/04/25 03:01:31;;;;;;;;;;;13.90;90.80;;;;;;4346504;33;44204;-82
2022/04/25 03:03:59;;;;;;;;;;;13.90;90.80;;;;;;4346800;33;43363;-82
2022/04/25 03:06:27;;;;;;;;;;;13.90;90.80;;;;;;4333454;33;45371;-83
2022/04/25 03:08:53;;;;;;;;;;;13.90;90.80;;;;;;4333586;33;42502;-82
2022/04/25 03:11:21;;;;;;;;;;;13.80;90.80;;;;;;4333431;33;43796;-82
2022/04/25 03:13:52;;;;;;;;;;;13.80;90.80;;;;;;4346634;33;45824;-81
2022/04/25 03:16:19;;;;;;;;;;;13.80;90.80;;;;;;4333202;33;42894;-81
2022/04/25 03:18:47;;;;;;;;;;;13.80;90.80;;;;;;4333271;33;43390;-81
2022/04/25 03:21:14;;;;;;;;;;;13.80;90.80;;;;;;4333153;33;44073;-82
2022/04/25 03:23:41;;;;;;;;;;;13.70;90.80;;;;;;4346072;33;42675;-81
2022/04/25 03:26:08;;;;;;;;;;;13.70;90.80;;;;;;4346040;33;44589;-81
2022/04/25 03:28:35;;;;;;;;;;;13.70;90.90;;;;;;4346178;33;43843;-81
2022/04/25 03:31:04;;;;;;;;;;;13.70;90.90;;;;;;4345953;33;43893;-82
2022/04/25 03:33:31;;;;;;;;;;;13.70;90.90;;;;;;4332901;33;44272;-81
2022/04/25 03:36:00;;;;;;;;;;;13.70;91.00;;;;;;4346376;33;43367;-81
2022/04/25 03:38:27;;;;;;;;;;;13.60;91.00;;;;;;4345958;33;43477;-81
2022/04/25 03:40:54;;;;;;;;;;;13.60;91.00;;;;;;4332817;33;43359;-81
2022/04/25 03:43:23;;;;;;;;;;;13.60;91.00;;;;;;4346139;33;42873;-81
2022/04/25 03:45:50;;;;;;;;;;;13.60;90.90;;;;;;4345753;33;44099;-81
2022/04/25 03:48:17;;;;;;;;;;;13.60;91.00;;;;;;4346157;33;44183;-81
2022/04/25 03:50:44;;;;;;;;;;;13.60;90.90;;;;;;4332730;33;43185;-82
2022/04/25 03:53:12;;;;;;;;;;;13.60;90.90;;;;;;4332863;33;46005;-81
2022/04/25 03:58:26;;;;;;;;;;;13.50;90.90;;;;;;4346276;33;44189;-81
2022/04/25 04:00:53;;;;;;;;;;;13.50;90.90;;;;;;4345454;33;44775;-81
2022/04/25 04:03:20;;;;;;;;;;;13.50;90.90;;;;;;4345301;33;46431;-81
2022/04/25 04:05:48;;;;;;;;;;;13.40;90.90;;;;;;4332730;33;43531;-81
2022/04/25 04:08:15;;;;;;;;;;;13.40;90.90;;;;;;4346066;33;43446;-81
2022/04/25 04:10:42;;;;;;;;;;;13.40;90.90;;;;;;4345319;33;44298;-82
2022/04/25 04:13:09;;;;;;;;;;;13.30;90.90;;;;;;4345726;33;44204;-81
2022/04/25 04:15:37;;;;;;;;;;;13.30;90.90;;;;;;4345831;33;43228;-82
2022/04/25 04:18:04;;;;;;;;;;;13.30;91.00;;;;;;4345826;33;42270;-82
2022/04/25 04:20:32;;;;;;;;;;;13.30;91.00;;;;;;4332200;33;45092;-81
2022/04/25 04:23:00;;;;;;;;;;;13.30;91.00;;;;;;4345660;33;43876;-81
2022/04/25 04:25:27;;;;;;;;;;;13.20;90.80;;;;;;4345513;33;43841;-81
2022/04/25 04:27:54;;;;;;;;;;;13.20;90.60;;;;;;4345797;33;43990;-81
2022/04/25 04:30:21;;;;;;;;;;;13.10;90.60;;;;;;4345597;33;44970;-81
2022/04/25 04:32:49;;;;;;;;;;;13.20;90.60;;;;;;4331888;33;44284;-81
2022/04/25 04:36:17;;;;;;;;;;;13.10;90.70;;;;;;4345755;33;43083;-81
2022/04/25 04:38:05;;;;;;;;;;;13.10;90.70;;;;;;4345620;33;44087;-81
2022/04/25 04:40:32;;;;;;;;;;;13.10;90.80;;;;;;4332418;33;43224;-81
2022/04/25 04:43:00;;;;;;;;;;;13.00;90.80;;;;;;4345144;33;43071;-81
2022/04/25 04:45:27;;;;;;;;;;;13.00;90.80;;;;;;4331921;33;43291;-81
2022/04/25 04:47:54;;;;;;;;;;;13.00;90.80;;;;;;4345042;33;43125;-81
2022/04/25 04:50:22;;;;;;;;;;;13.00;90.90;;;;;;4332197;33;44289;-81
2022/04/25 04:52:50;;;;;;;;;;;13.00;90.90;;;;;;4344872;33;43005;-81
2022/04/25 04:55:17;;;;;;;;;;;13.00;90.80;;;;;;4332049;33;44008;-82
2022/04/25 04:57:44;;;;;;;;;;;12.90;90.70;;;;;;4344880;33;44387;-81
2022/04/25 05:00:15;;;;;;;;;;;12.80;90.50;;;;;;4331733;33;44290;-81
2022/04/25 05:02:43;;;;;;;;;;;12.80;90.60;;;;;;4331638;33;44283;-81
2022/04/25 05:05:14;;;;;;;;;;;12.80;90.70;;;;;;4332028;33;45357;-81
2022/04/25 05:07:41;;;;;;;;;;;12.80;90.70;;;;;;4345362;33;43804;-81
2022/04/25 05:10:09;;;;;;;;;;;12.80;90.80;;;;;;4331525;33;42299;-81
2022/04/25 05:12:46;;;;;;;;;;;12.80;90.90;;;;;;4331384;33;43569;-81
2022/04/25 05:15:14;;;;;;;;;;;12.80;90.80;;;;;;4345171;33;43452;-81
2022/04/25 05:17:42;;;;;;;;;;;12.70;91.00;;;;;;4331934;33;44231;-81
2022/04/25 05:20:10;;;;;;;;;;;12.70;91.00;;;;;;4347750;33;43898;-80
2022/04/25 05:22:39;;;;;;;;;;;12.70;91.10;;;;;;4347758;33;42318;-81
2022/04/25 05:25:06;;;;;;;;;;;12.60;91.10;;;;;;4348049;33;43994;-81
2022/04/25 05:27:33;;;;;;;;;;;12.60;91.30;;;;;;4334908;33;43466;-82
2022/04/25 05:30:00;;;;;;;;;;;12.60;91.40;;;;;;4334824;33;44202;-82
2022/04/25 05:32:39;;;;;;;;;;;12.60;91.50;;;;;;4334647;33;42972;-82
2022/04/25 05:35:06;;;;;;;;;;;12.50;91.50;;;;;;4348138;33;43913;-82
2022/04/25 05:37:33;;;;;;;;;;;12.50;91.70;;;;;;4347620;33;42759;-82
2022/04/25 05:40:00;;;;;;;;;;;12.40;91.70;;;;;;4347569;33;42653;-82
2022/04/25 05:42:27;;;;;;;;;;;12.40;91.90;;;;;;4347964;33;44729;-81
2022/04/25 05:44:54;;;;;;;;;;;12.40;92.10;;;;;;4347916;33;42960;-82
2022/04/25 05:47:22;;;;;;;;;;;12.40;92.20;;;;;;4334491;33;43874;-81
2022/04/25 05:52:36;;;;;;;;;;;12.40;92.20;;;;;;4347545;33;42321;-82
2022/04/25 05:55:03;;;;;;;;;;;12.30;92.30;;;;;;4334067;33;42843;-83
2022/04/25 05:57:30;;;;;;;;;;;12.30;92.40;;;;;;4334246;33;43944;-82
2022/04/25 05:59:57;;;;;;;;;;;12.30;92.50;;;;;;4334316;33;44723;-82
2022/04/25 06:02:24;;;;;;;;;;;12.20;92.80;;;;;;4347118;33;42331;-82
2022/04/25 06:04:51;;;;;;;;;;;12.20;92.70;;;;;;4334577;33;44030;-82
2022/04/25 06:07:18;;;;;;;;;;;12.20;92.70;;;;;;4333960;33;44207;-82
2022/04/25 06:09:45;;;;;;;;;;;12.20;92.90;;;;;;4347138;33;44180;-82
2022/04/25 06:12:12;;;;;;;;;;;12.20;93.10;;;;;;4347527;33;44550;-82
2022/04/25 06:14:40;;;;;;;;;;;12.20;93.10;;;;;;4334224;33;42653;-82
2022/04/25 06:17:07;;;;;;;;;;;12.20;93.10;;;;;;4334023;33;44227;-82
2022/04/25 06:19:36;;;;;;;;;;;12.20;93.20;;;;;;4334483;33;43949;-83
2022/04/25 06:22:03;;;;;;;;;;;12.20;93.40;;;;;;4334163;33;43480;-81
2022/04/25 06:24:31;;;;;;;;;;;12.20;93.50;;;;;;4333963;33;44357;-82
2022/04/25 06:26:58;;;;;;;;;;;12.20;93.50;;;;;;4346917;33;43450;-82
2022/04/25 06:29:25;;;;;;;;;;;12.10;93.50;;;;;;4333806;33;45837;-82
2022/04/25 06:31:52;;;;;;;;;;;12.10;93.50;;;;;;4332719;33;44287;-81
2022/04/25 06:34:19;;;;;;;;;;;12.10;93.60;;;;;;4346927;33;45150;-82
2022/04/25 06:36:48;;;;;;;;;;;12.10;93.70;;;;;;4333648;33;43248;-82
2022/04/25 06:39:15;;;;;;;;;;;12.10;93.70;;;;;;4334000;33;45029;-82
2022/04/25 06:41:42;;;;;;;;;;;12.10;93.70;;;;;;4333966;33;46162;-82
2022/04/25 06:44:09;;;;;;;;;;;12.10;93.80;;;;;;4346710;33;45803;-82
2022/04/25 06:46:36;;;;;;;;;;;12.10;93.90;;;;;;4346716;33;42600;-82
2022/04/25 06:49:23;;;;;;;;;;;12.10;93.90;;;;;;4347047;33;43820;-82
2022/04/25 06:51:52;;;;;;;;;;;12.10;94.10;;;;;;4346885;33;44324;-82
2022/04/25 06:54:19;;;;;;;;;;;12.10;94.20;;;;;;4333681;33;44090;-81
2022/04/25 06:56:46;;;;;;;;;;;12.10;94.20;;;;;;4333642;33;42999;-82
2022/04/25 06:59:13;;;;;;;;;;;12.00;94.10;;;;;;4333208;33;42371;-82
2022/04/25 07:01:42;;;;;;;;;;;12.10;94.20;;;;;;4332820;33;46443;-82
2022/04/25 07:04:12;;;;;;;;;;;12.10;94.10;;;;;;4346730;33;44891;-82
2022/04/25 07:06:40;;;;;;;;;;;12.10;94.20;;;;;;4346327;33;43430;-82
2022/04/25 07:09:08;;;;;;;;;;;12.00;94.20;;;;;;4333442;33;42937;-82
2022/04/25 07:11:35;;;;;;;;;;;12.10;94.30;;;;;;4333402;33;43662;-82
2022/04/25 07:14:02;;;;;;;;;;;12.10;94.30;;;;;;4333459;33;45925;-82
2022/04/25 07:16:29;;;;;;;;;;;12.00;94.40;;;;;;4332930;33;43486;-82
2022/04/25 07:18:57;;;;;;;;;;;12.00;94.40;;;;;;4333121;33;46388;-81
2022/04/25 07:30:03;;;;;;;;;;;12.00;94.60;;;;;;4346442;33;42997;-82
2022/04/25 07:32:30;;;;;;;;;;;12.00;94.70;;;;;;4346008;33;44069;-82
2022/04/25 07:34:57;;;;;;;;;;;12.00;94.80;;;;;;4332793;33;44172;-82
2022/04/25 07:37:24;;;;;;;;;;;12.00;94.40;;;;;;4332677;33;43275;-82
2022/04/25 07:39:51;;;;;;;;;;;12.00;94.80;;;;;;4346350;33;44333;-82
2022/04/25 07:42:18;;;;;;;;;;;12.10;95.00;;;;;;4345978;33;44424;-81
2022/04/25 07:44:46;;;;;;;;;;;12.00;95.20;;;;;;4333038;33;43547;-82
2022/04/25 07:47:13;;;;;;;;;;;12.00;95.10;;;;;;4332597;33;43288;-81
2022/04/25 07:49:41;;;;;;;;;;;12.00;95.50;;;;;;4332662;33;43381;-81
2022/04/25 07:52:14;;;;;;;;;;;12.00;95.30;;;;;;4346282;33;44095;-81
2022/04/25 07:54:41;;;;;;;;;;;12.00;95.50;;;;;;4332286;33;45387;-82
2022/04/25 07:57:08;;;;;;;;;;;12.00;95.20;;;;;;4332772;33;43891;-81
2022/04/25 07:59:35;;;;;;;;;;;12.10;95.40;;;;;;4332337;33;44007;-82
2022/04/25 08:02:03;;;;;;;;;;;12.00;95.40;;;;;;4332249;33;43253;-82
2022/04/25 08:04:30;;;;;;;;;;;12.10;95.30;;;;;;4332792;33;44109;-82
2022/04/25 08:06:57;;;;;;;;;;;12.10;95.10;;;;;;4332311;33;43265;-81
2022/04/25 08:09:24;;;;;;;;;;;12.10;95.30;;;;;;4332491;33;45818;-81
2022/04/25 08:17:56;;;;;;;;;;;12.10;95.20;;;;;;4345772;33;43573;-81
2022/04/25 08:20:10;;;;;;;;;;;12.10;95.40;;;;;;4345709;33;43946;-81
2022/04/25 08:22:37;;;;;;;;;;;12.00;95.50;;;;;;4332479;33;44383;-81
2022/04/25 08:25:07;;;;;;;;;;;12.00;95.60;;;;;;4332112;33;45103;-81
2022/04/25 08:27:40;;;;;;;;;;;12.00;95.70;;;;;;4332870;33;44282;-82
2022/04/25 08:30:07;;;;;;;;;;;12.00;95.90;;;;;;4331942;33;44069;-81
2022/04/25 08:32:35;;;;;;;;;;;12.00;95.90;;;;;;4345221;33;44254;-82
2022/04/25 08:35:02;;;;;;;;;;;12.00;95.90;;;;;;4345570;33;45159;-81
2022/04/25 08:37:30;;;;;;;;;;;12.00;96.00;;;;;;4332008;33;44166;-81
2022/04/25 08:40:03;;;;;;;;;;;12.00;96.00;;;;;;4332518;33;44176;-81
2022/04/25 08:42:31;;;;;;;;;;;12.00;96.20;;;;;;4332829;33;20009;-81
2022/04/25 08:45:14;;;;;;;;;;;12.10;96.40;;;;;;4345476;33;44895;-82
2022/04/25 08:47:52;;;;;;;;;;;12.00;96.20;;;;;;4332126;33;45333;-81
2022/04/25 08:50:19;;;;;;;;;;;12.10;96.20;;;;;;4332178;33;43981;-81
2022/04/25 08:52:47;;;;;;;;;;;12.10;96.20;;;;;;4344975;33;43533;-81
2022/04/25 08:55:15;;;;;;;;;;;12.00;96.20;;;;;;4331516;33;43809;-81
2022/04/25 08:57:46;;;;;;;;;;;12.10;96.40;;;;;;4332000;33;44890;-81
2022/04/25 09:00:15;;;;;;;;;;;12.10;96.50;;;;;;4331652;33;44668;-82
2022/04/25 09:02:44;;;;;;;;;;;12.10;96.30;;;;;;4331882;33;44337;-81
2022/04/25 09:05:12;;;;;;;;;;;12.10;96.50;;;;;;4332134;33;43506;-81
2022/04/25 09:07:41;;;;;;;;;;;12.10;96.50;;;;;;4331963;33;44108;-81
2022/04/25 09:10:09;;;;;;;;;;;12.10;96.40;;;;;;4331901;33;44423;-81
2022/04/25 09:12:37;;;;;;;;;;;12.10;96.40;;;;;;4332454;33;20043;-82
2022/04/25 09:15:05;;;;;;;;;;;12.20;96.40;;;;;;4344844;33;44112;-81
2022/04/25 09:17:49;;;;;;;;;;;12.20;96.40;;;;;;4345246;33;43039;-81
2022/04/25 09:20:18;;;;;;;;;;;12.20;96.70;;;;;;4331396;33;46383;-81
2022/04/25 09:22:46;;;;;;;;;;;12.20;96.30;;;;;;4332041;33;43194;-82
2022/04/25 09:25:17;;;;;;;;;;;12.30;96.70;;;;;;4331453;33;43170;-82
2022/04/25 09:28:12;;;;;;;;;;;12.30;96.50;;;;;;4334210;33;43452;-81
2022/04/25 09:30:53;;;;;;;;;;;12.30;96.80;;;;;;4331937;33;45572;-80
2022/04/25 09:33:21;;;;;;;;;;;12.30;96.90;;;;;;4331779;33;43267;-82
2022/04/25 09:35:53;;;;;;;;;;;12.30;96.50;;;;;;4332058;33;43490;-81
2022/04/25 09:38:30;;;;;;;;;;;12.30;96.80;;;;;;4345166;33;43084;-82
2022/04/25 09:40:57;;;;;;;;;;;12.30;96.50;;;;;;4331247;33;45704;-82
2022/04/25 09:43:31;;;;;;;;;;;12.40;96.30;;;;;;4332318;33;20004;-82
2022/04/25 09:46:04;;;;;;;;;;;12.40;96.70;;;;;;4331771;33;45913;-83
2022/04/25 09:48:31;;;;;;;;;;;12.40;96.60;;;;;;4331763;33;45399;-82
2022/04/25 09:50:59;;;;;;;;;;;12.40;96.60;;;;;;4331384;33;44057;-82
2022/04/25 09:53:46;;;;;;;;;;;12.40;96.40;;;;;;4344863;33;44077;-82
2022/04/25 09:56:18;;;;;;;;;;;12.40;96.20;;;;;;4331769;33;44924;-82
2022/04/25 09:58:59;;;;;;;;;;;12.50;96.00;;;;;;4344606;33;43792;-82
2022/04/25 10:01:26;;;;;;;;;;;12.50;95.90;;;;;;4344646;33;44096;-81
2022/04/25 10:03:54;;;;;;;;;;;12.40;95.90;;;;;;4345033;33;43369;-81
2022/04/25 10:06:22;;;;;;;;;;;12.50;95.80;;;;;;4334044;33;43047;-81
2022/04/25 10:08:50;;;;;;;;;;;12.50;95.90;;;;;;4333869;33;43965;-81
2022/04/25 10:11:18;;;;;;;;;;;12.50;96.00;;;;;;4347602;33;43891;-81
2022/04/25 10:13:46;;;;;;;;;;;12.60;95.70;;;;;;4334815;33;20036;-81
2022/04/25 10:16:18;;;;;;;;;;;12.60;95.50;;;;;;4334162;33;43865;-82
2022/04/25 10:18:45;;;;;;;;;;;12.60;95.70;;;;;;4333946;33;44173;-82
2022/04/25 10:21:14;;;;;;;;;;;12.60;95.90;;;;;;4334358;33;43823;-81
2022/04/25 10:23:44;;;;;;;;;;;12.60;95.80;;;;;;4334230;33;42298;-81
2022/04/25 10:26:11;;;;;;;;;;;12.60;95.50;;;;;;4347024;33;43993;-81
2022/04/25 10:28:42;;;;;;;;;;;12.60;95.60;;;;;;4333939;33;43500;-81
2022/04/25 10:31:18;;;;;;;;;;;12.60;95.90;;;;;;4333902;33;42501;-81
2022/04/25 10:33:54;;;;;;;;;;;12.60;95.70;;;;;;4333952;33;44151;-81
2022/04/25 10:36:39;;;;;;;;;;;12.60;95.70;;;;;;4333936;33;44197;-81
2022/04/25 10:39:24;;;;;;;;;;;12.60;95.70;;;;;;4333482;33;44131;-81
2022/04/25 10:44:42;;;;;;;;;;;12.60;95.70;;;;;;4347535;33;20036;-81
2022/04/25 10:47:11;;;;;;;;;;;12.60;95.80;;;;;;4346857;33;42803;-82
2022/04/25 10:49:42;;;;;;;;;;;12.70;95.70;;;;;;4333778;33;43926;-81
2022/04/25 10:52:30;;;;;;;;;;;12.60;95.70;;;;;;4333627;33;43038;-81
2022/04/25 10:55:09;;;;;;;;;;;12.60;95.60;;;;;;4334357;33;44215;-81
2022/04/25 10:57:36;;;;;;;;;;;12.60;95.60;;;;;;4333124;33;44712;-81
2022/04/25 11:00:24;;;;;;;;;;;12.60;95.80;;;;;;4346554;33;43891;-81
2022/04/25 11:03:10;;;;;;;;;;;12.60;95.70;;;;;;4333086;33;43481;-81
2022/04/25 11:05:38;;;;;;;;;;;12.70;95.50;;;;;;4333539;33;44341;-82
2022/04/25 11:08:21;;;;;;;;;;;12.70;95.70;;;;;;4346512;33;42353;-81
2022/04/25 11:10:49;;;;;;;;;;;12.70;95.80;;;;;;4346644;33;43877;-82
2022/04/25 11:13:21;;;;;;;;;;;12.70;96.10;;;;;;4346663;33;43900;-82
2022/04/25 11:15:49;;;;;;;;;;;12.70;96.10;;;;;;4333295;33;45072;-82
2022/04/25 11:18:44;;;;;;;;;;;12.70;95.90;;;;;;4333192;33;44058;-82
2022/04/25 11:21:11;;;;;;;;;;;12.70;95.80;;;;;;4346628;33;42885;-82
2022/04/25 11:23:44;;;;;;;;;;;12.70;95.70;;;;;;4346676;33;44015;-82
2022/04/25 11:26:20;;;;;;;;;;;12.70;95.80;;;;;;4333262;33;42848;-81
2022/04/25 11:28:53;;;;;;;;;;;12.70;95.70;;;;;;4346604;33;44718;-81
2022/04/25 11:31:22;;;;;;;;;;;12.70;95.80;;;;;;4332722;33;44469;-81
2022/04/25 11:33:50;;;;;;;;;;;12.80;95.60;;;;;;4332921;33;43829;-81
2022/04/25 11:36:17;;;;;;;;;;;12.80;95.60;;;;;;4345926;33;43397;-81
2022/04/25 11:41:35;;;;;;;;;;;12.80;95.20;;;;;;4346425;33;45900;-81
2022/04/25 11:44:04;;;;;;;;;;;12.80;95.10;;;;;;4346309;33;43619;-81
2022/04/25 11:46:32;;;;;;;;;;;12.80;95.20;;;;;;4347024;33;20001;-81
2022/04/25 11:49:04;;;;;;;;;;;12.90;95.20;;;;;;4346291;33;45631;-81
2022/04/25 11:51:32;;;;;;;;;;;12.90;95.40;;;;;;4332848;33;45815;-81
2022/04/25 11:54:01;;;;;;;;;;;12.90;95.40;;;;;;4332824;33;45856;-81
2022/04/25 11:56:28;;;;;;;;;;;12.90;95.50;;;;;;4345507;33;45270;-80
2022/04/25 11:58:56;;;;;;;;;;;13.00;95.30;;;;;;4345941;33;42296;-80
2022/04/25 12:01:33;;;;;;;;;;;13.00;95.50;;;;;;4345366;33;44075;-81
2022/04/25 12:04:13;;;;;;;;;;;13.00;95.30;;;;;;4332583;33;43223;-80
2022/04/25 12:06:49;;;;;;;;;;;13.00;95.40;;;;;;4332697;33;43333;-80
2022/04/25 12:17:41;;;;;;;;;;;13.10;95.30;;;;;;4346505;33;19997;-80
2022/04/25 12:20:09;;;;;;;;;;;13.20;95.50;;;;;;4332453;33;42908;-80
2022/04/25 12:22:37;;;;;;;;;;;13.20;95.20;;;;;;4332430;33;43904;-80
2022/04/25 12:25:15;;;;;;;;;;;13.20;95.40;;;;;;4345787;33;43351;-80
2022/04/25 12:28:01;;;;;;;;;;;13.30;95.40;;;;;;4332139;33;44348;-80
2022/04/25 12:30:30;;;;;;;;;;;13.30;95.30;;;;;;4345115;33;43885;-81
2022/04/25 12:33:20;;;;;;;;;;;13.30;95.10;;;;;;4345905;33;43474;-80
2022/04/25 12:35:48;;;;;;;;;;;13.30;94.80;;;;;;4332106;33;43260;-80
2022/04/25 12:38:32;;;;;;;;;;;13.30;94.50;;;;;;4331935;33;42962;-79
2022/04/25 12:40:59;;;;;;;;;;;13.30;94.50;;;;;;4345614;33;43195;-80
2022/04/25 12:43:35;;;;;;;;;;;13.30;94.60;;;;;;4345072;33;43854;-80
2022/04/25 12:46:02;;;;;;;;;;;13.40;94.60;;;;;;4331850;33;43096;-80
2022/04/25 12:48:30;;;;;;;;;;;13.40;94.60;;;;;;4332471;33;20661;-80
2022/04/25 12:51:02;;;;;;;;;;;13.40;94.60;;;;;;4332801;33;43921;-80
2022/04/25 12:53:39;;;;;;;;;;;13.40;94.40;;;;;;4331823;33;44202;-80
2022/04/25 12:56:07;;;;;;;;;;;13.50;94.30;;;;;;4344896;33;44936;-82
2022/04/25 12:58:34;;;;;;;;;;;13.50;94.30;;;;;;4331882;33;44911;-80
2022/04/25 13:01:01;;;;;;;;;;;13.50;94.30;;;;;;4332089;33;46194;-80
2022/04/25 13:04:05;;;;;;;;;;;13.50;94.20;;;;;;4333912;33;43157;-80
2022/04/25 13:06:32;;;;;;;;;;;13.60;94.40;;;;;;4332063;33;44260;-80
2022/04/25 13:08:59;;;;;;;;;;;13.60;94.20;;;;;;4344804;33;43770;-81
2022/04/25 13:11:46;;;;;;;;;;;13.60;94.20;;;;;;4334302;33;44801;-80
2022/04/25 13:14:14;;;;;;;;;;;13.70;93.70;;;;;;4345001;33;44896;-80
2022/04/25 13:16:41;;;;;;;;;;;13.70;93.80;;;;;;4331550;33;43478;-81
2022/04/25 13:19:09;;;;;;;;;;;13.70;93.70;;;;;;4345561;33;20010;-81
2022/04/25 13:21:39;;;;;;;;;;;13.70;93.40;;;;;;4332133;33;44464;-81
2022/04/25 13:24:06;;;;;;;;;;;13.70;93.40;;;;;;4331626;33;43458;-81
2022/04/25 13:26:33;;;;;;;;;;;13.80;93.60;;;;;;4331522;33;45964;-81
2022/04/25 13:29:00;;;;;;;;;;;13.80;93.60;;;;;;4331440;33;42632;-81
2022/04/25 13:31:27;;;;;;;;;;;13.80;93.60;;;;;;4331346;33;43931;-81
2022/04/25 13:33:56;;;;;;;;;;;13.80;93.40;;;;;;4331784;33;43895;-81
2022/04/25 13:36:23;;;;;;;;;;;13.80;93.30;;;;;;4331429;33;43495;-80
2022/04/25 13:38:50;;;;;;;;;;;13.80;93.40;;;;;;4331953;33;44066;-81
2022/04/25 13:41:18;;;;;;;;;;;13.90;93.50;;;;;;4334302;33;44234;-81
2022/04/25 13:43:45;;;;;;;;;;;13.90;93.50;;;;;;4334317;33;43791;-81
2022/04/25 13:46:12;;;;;;;;;;;13.90;93.20;;;;;;4334660;33;42554;-81
2022/04/25 13:48:39;;;;;;;;;;;14.00;93.30;;;;;;4334673;33;43997;-81
2022/04/25 13:51:07;;;;;;;;;;;14.00;93.20;;;;;;4348253;33;44205;-81
2022/04/25 13:53:34;;;;;;;;;;;14.00;93.40;;;;;;4347469;33;42234;-81
2022/04/25 13:56:03;;;;;;;;;;;14.00;93.20;;;;;;4334203;33;43893;-81
2022/04/25 13:58:31;;;;;;;;;;;14.00;92.90;;;;;;4334365;33;43467;-81
2022/04/25 14:00:58;;;;;;;;;;;14.00;93.00;;;;;;4334047;33;43904;-81
2022/04/25 14:03:27;;;;;;;;;;;14.00;92.70;;;;;;4347410;33;44714;-81
2022/04/25 14:05:55;;;;;;;;;;;14.00;92.30;;;;;;4347537;33;43513;-81
2022/04/25 14:08:23;;;;;;;;;;;14.00;92.80;;;;;;4333881;33;44696;-81
2022/04/25 14:10:52;;;;;;;;;;;14.10;92.60;;;;;;4334266;33;43474;-81
2022/04/25 14:13:20;;;;;;;;;;;14.10;91.80;;;;;;4347248;33;43910;-81
2022/04/25 14:15:48;;;;;;;;;;;14.10;91.80;;;;;;4347004;33;43528;-81
2022/04/25 14:18:16;;;;;;;;;;;14.10;92.60;;;;;;4333883;33;45766;-81
2022/04/25 14:20:43;;;;;;;;;;;14.10;92.40;;;;;;4347619;33;44301;-81
2022/04/25 14:23:10;;;;;;;;;;;14.20;92.10;;;;;;4346939;33;45977;-81
2022/04/25 14:25:38;;;;;;;;;;;14.20;92.20;;;;;;4334285;33;43474;-81
2022/04/25 14:28:11;;;;;;;;;;;14.20;92.70;;;;;;4334188;33;44118;-82
2022/04/25 14:30:38;;;;;;;;;;;14.20;92.60;;;;;;4347071;33;43191;-81
2022/04/25 14:33:05;;;;;;;;;;;14.20;92.60;;;;;;4333916;33;44137;-81
2022/04/25 14:35:33;;;;;;;;;;;14.20;92.30;;;;;;4347027;33;42835;-81
2022/04/25 14:38:00;;;;;;;;;;;14.20;92.10;;;;;;4334004;33;44208;-81
2022/04/25 14:40:27;;;;;;;;;;;14.20;92.40;;;;;;4347161;33;42877;-81
2022/04/25 14:43:00;;;;;;;;;;;14.20;92.50;;;;;;4346673;33;43464;-81
2022/04/25 14:45:27;;;;;;;;;;;14.30;91.90;;;;;;4333798;33;43246;-81
2022/04/25 14:47:54;;;;;;;;;;;14.30;92.10;;;;;;4347124;33;44266;-81
2022/04/25 14:55:53;;;;;;;;;;;14.30;91.70;;;;;;4347081;33;45979;-81
2022/04/25 14:58:21;;;;;;;;;;;14.30;91.20;;;;;;4346708;33;42558;-81
2022/04/25 15:00:53;;;;;;;;;;;14.30;91.40;;;;;;4346589;33;43316;-81
2022/04/25 15:03:20;;;;;;;;;;;14.30;91.10;;;;;;4346256;33;44019;-81
2022/04/25 15:05:48;;;;;;;;;;;14.30;91.20;;;;;;4347073;33;43909;-82
2022/04/25 15:08:15;;;;;;;;;;;14.40;91.70;;;;;;4346515;33;42641;-81
2022/04/25 15:10:42;;;;;;;;;;;14.40;91.90;;;;;;4346844;33;43918;-81